createdAt,value
2023-12-21T00:01:29.689Z,963.13
2023-12-21T00:16:31.878Z,963.29
2023-12-21T00:31:34.100Z,963.39
2023-12-21T00:46:36.268Z,963.49
2023-12-21T01:01:38.628Z,963.59
2023-12-21T01:16:40.929Z,963.61
2023-12-21T01:31:43.478Z,963.71
2023-12-21T01:46:45.840Z,963.85
2023-12-21T02:01:48.183Z,963.86
2023-12-21T02:16:50.232Z,963.9
2023-12-21T02:31:52.577Z,963.88
2023-12-21T02:46:54.752Z,963.94
2023-12-21T03:01:56.830Z,963.82
2023-12-21T03:16:59.006Z,963.86
2023-12-21T03:32:01.101Z,964.03
2023-12-21T03:47:03.090Z,964.22
2023-12-21T04:02:05.349Z,964.32
2023-12-21T04:17:07.489Z,964.33
2023-12-21T04:32:09.672Z,964.3
2023-12-21T04:47:22.453Z,964.32
2023-12-21T05:02:26.237Z,964.59
2023-12-21T05:17:28.425Z,964.69
2023-12-21T05:32:30.677Z,964.78
2023-12-21T05:47:33.051Z,964.85
2023-12-21T06:02:35.382Z,964.83
2023-12-21T06:17:37.708Z,965.03
2023-12-21T06:32:39.824Z,965.06
2023-12-21T06:47:41.975Z,965.09
2023-12-21T07:02:44.251Z,965.11
2023-12-21T07:17:46.254Z,965.14
2023-12-21T07:32:48.613Z,965.09
2023-12-21T07:47:50.787Z,965.16
2023-12-21T08:02:52.852Z,965.14
2023-12-21T08:17:55.182Z,965.25
2023-12-21T08:32:57.236Z,965.21
2023-12-21T08:47:59.286Z,965.28
2023-12-21T09:03:01.273Z,965.23
2023-12-21T09:18:03.332Z,965.4
2023-12-21T09:33:05.393Z,965.49
2023-12-21T09:48:07.492Z,965.52
2023-12-21T10:03:09.769Z,965.53
2023-12-21T10:18:12.081Z,965.64
2023-12-21T10:33:14.356Z,965.68
2023-12-21T10:48:16.377Z,965.75
2023-12-21T11:03:18.677Z,965.57
2023-12-21T11:18:20.777Z,965.58
2023-12-21T11:33:22.842Z,965.8
2023-12-21T11:48:24.902Z,965.79
2023-12-21T12:03:26.913Z,965.76
2023-12-21T12:18:29.012Z,965.68
2023-12-21T12:33:31.177Z,965.75
2023-12-21T12:48:33.451Z,965.94
2023-12-21T13:03:35.521Z,966.01
2023-12-21T13:18:37.513Z,966.09
2023-12-21T13:33:39.632Z,966.08
2023-12-21T13:48:41.810Z,966.3
2023-12-21T14:03:43.903Z,966.49
2023-12-21T14:18:45.919Z,966.45
2023-12-21T14:33:47.990Z,966.53
2023-12-21T14:48:50.084Z,966.55
2023-12-21T15:03:52.197Z,966.57
2023-12-21T15:18:54.252Z,966.48
2023-12-21T15:33:56.247Z,966.6
2023-12-21T15:48:58.309Z,966.79
2023-12-21T16:04:00.433Z,966.83
2023-12-21T16:19:02.505Z,966.9
2023-12-21T16:34:04.584Z,966.96
2023-12-21T16:49:06.777Z,966.97
2023-12-21T17:04:08.937Z,966.9
2023-12-21T17:19:11.176Z,967
2023-12-21T17:34:17.382Z,967.13
2023-12-21T17:49:21.583Z,967.28
2023-12-21T18:04:23.634Z,967.43
2023-12-21T18:19:25.711Z,967.52
2023-12-21T18:34:27.948Z,967.37
2023-12-21T18:49:30.193Z,967.31
2023-12-21T19:04:32.460Z,967.27
2023-12-21T19:19:34.658Z,967.24
2023-12-21T19:34:36.818Z,967.17
2023-12-21T19:49:38.886Z,967.14
2023-12-21T20:04:41.109Z,966.91
2023-12-21T20:19:43.350Z,966.85
2023-12-21T20:34:45.436Z,966.61
2023-12-21T20:49:47.487Z,966.54
2023-12-21T21:04:49.692Z,966.32
2023-12-21T21:19:51.894Z,966.27
2023-12-21T21:34:53.988Z,966.2
2023-12-21T21:49:56.117Z,966.16
2023-12-21T22:04:58.487Z,966.22
2023-12-21T22:20:00.647Z,966.37
2023-12-21T22:35:02.676Z,966.38
2023-12-21T22:50:04.729Z,966.38
2023-12-21T23:05:06.968Z,966.17
2023-12-21T23:20:09.160Z,966.33
2023-12-21T23:35:17.658Z,966.42
2023-12-21T23:50:21.662Z,966.44
